SHT4H EGLL-EGAC
Flight info
| Callsign | SHT4H |
|---|---|
| Flight time | 0h 52m |
| Altitude | 38000 |
| Route | ULTIB1J ULTIB T420 TNT UL28 RODOL UM65 TENSO L603 BELOX DCT REMSI DCT NINEB M148 MAGEE DCT |
| Aircraft | A20N/M-SDGIJ1LRWXY/SB1 |
Departure
| Time | 2026-04-26 07:28 |
|---|---|
| Airport | London Heathrow Airport (EGLL) |
Arrival
| Time | 2026-04-26 08:21 |
|---|---|
| Airport | George Best Belfast City Airport (EGAC) |
| Time | Latitude | Longitude | Altitude | Speed | Heading |
|---|---|---|---|---|---|
| 2026-04-26 06:29 | 51.46837 | -0.48619 | 99 ft | 0 kts | 179° |
| 2026-04-26 06:58 | 51.46838 | -0.48619 | 86 ft | 0 kts | 179° |
| 2026-04-26 07:18 | 51.46855 | -0.48620 | 90 ft | 2 kts | 180° |
| 2026-04-26 07:18 | 51.46873 | -0.48623 | 88 ft | 4 kts | 116° |
| 2026-04-26 07:18 | 51.46877 | -0.48661 | 88 ft | 4 kts | 90° |
| 2026-04-26 07:19 | 51.46877 | -0.48675 | 88 ft | 0 kts | 90° |
| 2026-04-26 07:19 | 51.46877 | -0.48696 | 86 ft | 3 kts | 90° |
| 2026-04-26 07:19 | 51.46877 | -0.48734 | 86 ft | 3 kts | 90° |
| 2026-04-26 07:20 | 51.46877 | -0.48750 | 86 ft | 0 kts | 90° |
| 2026-04-26 07:23 | 51.46877 | -0.48739 | 86 ft | 4 kts | 90° |
| 2026-04-26 07:23 | 51.46879 | -0.48644 | 86 ft | 13 kts | 88° |
| 2026-04-26 07:24 | 51.46883 | -0.48546 | 86 ft | 1 kts | 86° |
| 2026-04-26 07:24 | 51.46883 | -0.48541 | 86 ft | 2 kts | 85° |
| 2026-04-26 07:24 | 51.46883 | -0.48528 | 86 ft | 0 kts | 87° |
| 2026-04-26 07:25 | 51.46883 | -0.48529 | 86 ft | 0 kts | 87° |
| 2026-04-26 07:25 | 51.46875 | -0.48496 | 90 ft | 7 kts | 125° |
| 2026-04-26 07:25 | 51.46806 | -0.48473 | 87 ft | 15 kts | 191° |
| 2026-04-26 07:26 | 51.46765 | -0.48466 | 88 ft | 5 kts | 164° |
| 2026-04-26 07:26 | 51.46703 | -0.48463 | 91 ft | 14 kts | 185° |
| 2026-04-26 07:26 | 51.46607 | -0.48467 | 86 ft | 11 kts | 182° |
| 2026-04-26 07:26 | 51.46516 | -0.48467 | 86 ft | 15 kts | 173° |
| 2026-04-26 07:27 | 51.46484 | -0.48441 | 87 ft | 6 kts | 120° |
| 2026-04-26 07:27 | 51.46481 | -0.48384 | 87 ft | 6 kts | 84° |
| 2026-04-26 07:27 | 51.46481 | -0.48375 | 87 ft | 0 kts | 89° |
| 2026-04-26 07:28 | 51.46486 | -0.48156 | 91 ft | 55 kts | 96° |
| 2026-04-26 07:28 | 51.46463 | -0.47548 | 85 ft | 104 kts | 86° |
| 2026-04-26 07:28 | 51.46485 | -0.45999 | 102 ft | 164 kts | 90° |
| 2026-04-26 07:28 | 51.46480 | -0.44202 | 968 ft | 152 kts | 89° |
| 2026-04-26 07:29 | 51.46508 | -0.42559 | 1884 ft | 146 kts | 90° |
| 2026-04-26 07:29 | 51.46743 | -0.40886 | 2373 ft | 167 kts | 65° |
| 2026-04-26 07:29 | 51.47426 | -0.39240 | 2902 ft | 188 kts | 55° |
| 2026-04-26 07:29 | 51.48345 | -0.37410 | 3510 ft | 213 kts | 52° |
| 2026-04-26 07:30 | 51.49292 | -0.35602 | 4240 ft | 233 kts | 51° |
| 2026-04-26 07:30 | 51.50381 | -0.33543 | 5071 ft | 255 kts | 52° |
| 2026-04-26 07:30 | 51.51509 | -0.31260 | 6078 ft | 267 kts | 56° |
| 2026-04-26 07:30 | 51.52443 | -0.28580 | 7211 ft | 274 kts | 68° |
| 2026-04-26 07:31 | 51.53121 | -0.25746 | 8353 ft | 279 kts | 70° |
| 2026-04-26 07:31 | 51.53811 | -0.22806 | 9526 ft | 284 kts | 63° |
| 2026-04-26 07:31 | 51.55052 | -0.20328 | 10617 ft | 291 kts | 38° |
| 2026-04-26 07:31 | 51.56904 | -0.18775 | 11207 ft | 314 kts | 14° |
| 2026-04-26 07:32 | 51.59147 | -0.18515 | 11711 ft | 336 kts | 351° |
| 2026-04-26 07:32 | 51.61370 | -0.19763 | 12533 ft | 342 kts | 327° |
| 2026-04-26 07:32 | 51.63176 | -0.22259 | 13567 ft | 345 kts | 310° |
| 2026-04-26 07:32 | 51.64792 | -0.25138 | 14567 ft | 349 kts | 311° |
| 2026-04-26 07:33 | 51.66584 | -0.27890 | 15481 ft | 355 kts | 318° |
| 2026-04-26 07:33 | 51.68536 | -0.30316 | 16363 ft | 361 kts | 323° |
| 2026-04-26 07:33 | 51.70647 | -0.32570 | 17239 ft | 367 kts | 326° |
| 2026-04-26 07:33 | 51.72875 | -0.34761 | 18122 ft | 373 kts | 328° |
| 2026-04-26 07:34 | 51.75097 | -0.36882 | 18932 ft | 378 kts | 328° |
| 2026-04-26 07:34 | 51.77366 | -0.39036 | 19761 ft | 380 kts | 328° |
| 2026-04-26 07:34 | 51.79651 | -0.41217 | 20543 ft | 383 kts | 328° |
| 2026-04-26 07:34 | 51.81946 | -0.43420 | 21349 ft | 386 kts | 327° |
| 2026-04-26 07:35 | 51.84261 | -0.45654 | 22155 ft | 389 kts | 327° |
| 2026-04-26 07:35 | 51.86595 | -0.47914 | 22948 ft | 392 kts | 327° |
| 2026-04-26 07:35 | 51.88944 | -0.50194 | 23701 ft | 396 kts | 327° |
| 2026-04-26 07:35 | 51.91314 | -0.52500 | 24370 ft | 399 kts | 327° |
| 2026-04-26 07:36 | 51.93699 | -0.54825 | 25037 ft | 401 kts | 327° |
| 2026-04-26 07:36 | 51.96100 | -0.57168 | 25664 ft | 404 kts | 326° |
| 2026-04-26 07:36 | 51.98521 | -0.59534 | 26280 ft | 407 kts | 326° |
| 2026-04-26 07:36 | 52.00954 | -0.61915 | 26886 ft | 410 kts | 326° |
| 2026-04-26 07:37 | 52.02699 | -0.63624 | 27301 ft | 412 kts | 326° |
| 2026-04-26 07:38 | 52.04346 | -0.65219 | 27703 ft | 414 kts | 327° |
| 2026-04-26 07:38 | 52.06844 | -0.67588 | 28290 ft | 417 kts | 328° |
| 2026-04-26 07:38 | 52.09354 | -0.69965 | 28814 ft | 419 kts | 328° |
| 2026-04-26 07:38 | 52.11878 | -0.72389 | 29332 ft | 422 kts | 327° |
| 2026-04-26 07:39 | 52.14408 | -0.74853 | 29826 ft | 425 kts | 327° |
| 2026-04-26 07:39 | 52.16943 | -0.77347 | 30315 ft | 427 kts | 327° |
| 2026-04-26 07:39 | 52.19488 | -0.79869 | 30749 ft | 430 kts | 326° |
| 2026-04-26 07:39 | 52.22050 | -0.82414 | 31184 ft | 432 kts | 326° |
| 2026-04-26 07:40 | 52.24584 | -0.84935 | 31630 ft | 434 kts | 326° |
| 2026-04-26 07:40 | 52.27160 | -0.87503 | 32174 ft | 433 kts | 326° |
| 2026-04-26 07:40 | 52.29721 | -0.90059 | 32767 ft | 431 kts | 326° |
| 2026-04-26 07:40 | 52.32276 | -0.92608 | 33327 ft | 429 kts | 326° |
| 2026-04-26 07:41 | 52.34821 | -0.95150 | 33898 ft | 428 kts | 326° |
| 2026-04-26 07:41 | 52.37353 | -0.97683 | 34437 ft | 426 kts | 326° |
| 2026-04-26 07:41 | 52.39877 | -1.00211 | 34840 ft | 426 kts | 325° |
| 2026-04-26 07:41 | 52.42446 | -1.02787 | 35202 ft | 427 kts | 325° |
| 2026-04-26 07:42 | 52.44940 | -1.05292 | 35576 ft | 426 kts | 326° |
| 2026-04-26 07:42 | 52.47471 | -1.07839 | 35963 ft | 426 kts | 326° |
| 2026-04-26 07:42 | 52.49994 | -1.10379 | 36337 ft | 426 kts | 326° |
| 2026-04-26 07:42 | 52.52519 | -1.12924 | 36717 ft | 426 kts | 326° |
| 2026-04-26 07:43 | 52.55046 | -1.15474 | 37059 ft | 426 kts | 326° |
| 2026-04-26 07:43 | 52.57569 | -1.18023 | 37409 ft | 426 kts | 326° |
| 2026-04-26 07:43 | 52.60091 | -1.20573 | 37756 ft | 426 kts | 326° |
| 2026-04-26 07:43 | 52.62611 | -1.23124 | 38096 ft | 425 kts | 326° |
| 2026-04-26 07:44 | 52.65132 | -1.25678 | 38256 ft | 425 kts | 326° |
| 2026-04-26 07:44 | 52.70121 | -1.30743 | 38265 ft | 423 kts | 326° |
| 2026-04-26 07:45 | 52.75132 | -1.35848 | 38349 ft | 423 kts | 325° |
| 2026-04-26 07:45 | 52.80142 | -1.40966 | 38347 ft | 423 kts | 325° |
| 2026-04-26 07:46 | 52.85146 | -1.46092 | 38346 ft | 423 kts | 325° |
| 2026-04-26 07:46 | 52.90150 | -1.51230 | 38346 ft | 423 kts | 325° |
| 2026-04-26 07:47 | 52.95160 | -1.56388 | 38330 ft | 424 kts | 325° |
| 2026-04-26 07:47 | 53.00169 | -1.61559 | 38350 ft | 425 kts | 325° |
| 2026-04-26 07:48 | 53.05160 | -1.66726 | 38340 ft | 426 kts | 325° |
| 2026-04-26 07:48 | 53.10183 | -1.71944 | 38343 ft | 426 kts | 325° |
| 2026-04-26 07:49 | 53.15208 | -1.77180 | 38349 ft | 426 kts | 325° |
| 2026-04-26 07:49 | 53.20240 | -1.82438 | 38350 ft | 427 kts | 325° |
| 2026-04-26 07:50 | 53.27827 | -1.90129 | 38341 ft | 428 kts | 328° |
| 2026-04-26 07:50 | 53.33034 | -1.94961 | 38338 ft | 428 kts | 328° |
| 2026-04-26 07:51 | 53.38231 | -1.99850 | 38335 ft | 428 kts | 327° |
| 2026-04-26 07:51 | 53.43405 | -2.04774 | 38332 ft | 428 kts | 327° |
| 2026-04-26 07:52 | 53.48545 | -2.09686 | 38316 ft | 428 kts | 327° |
| 2026-04-26 07:52 | 53.53713 | -2.14639 | 38321 ft | 428 kts | 327° |
| 2026-04-26 07:53 | 53.58418 | -2.20579 | 38316 ft | 421 kts | 310° |
| 2026-04-26 07:53 | 53.61758 | -2.28545 | 38306 ft | 416 kts | 294° |
| 2026-04-26 07:54 | 53.63902 | -2.37554 | 38302 ft | 415 kts | 289° |
| 2026-04-26 07:54 | 53.65989 | -2.46619 | 38305 ft | 415 kts | 289° |
| 2026-04-26 07:55 | 53.68053 | -2.55650 | 38309 ft | 415 kts | 289° |
| 2026-04-26 07:55 | 53.70120 | -2.64759 | 38303 ft | 416 kts | 289° |
| 2026-04-26 07:56 | 53.72182 | -2.73894 | 38304 ft | 417 kts | 289° |
| 2026-04-26 07:56 | 53.74241 | -2.83059 | 38295 ft | 417 kts | 289° |
| 2026-04-26 07:57 | 53.76293 | -2.92227 | 38298 ft | 418 kts | 289° |
| 2026-04-26 07:57 | 53.78342 | -3.01424 | 38294 ft | 418 kts | 289° |
| 2026-04-26 07:58 | 53.80382 | -3.10620 | 38297 ft | 418 kts | 288° |
| 2026-04-26 07:58 | 53.82402 | -3.19764 | 38287 ft | 418 kts | 288° |
| 2026-04-26 07:59 | 53.84434 | -3.29008 | 38288 ft | 418 kts | 288° |
| 2026-04-26 07:59 | 53.86457 | -3.38250 | 38288 ft | 419 kts | 288° |
| 2026-04-26 08:00 | 53.88476 | -3.47511 | 38288 ft | 419 kts | 288° |
| 2026-04-26 08:00 | 53.90488 | -3.56778 | 38281 ft | 419 kts | 288° |
| 2026-04-26 08:01 | 53.92490 | -3.66057 | 38283 ft | 419 kts | 288° |
| 2026-04-26 08:01 | 53.94476 | -3.75292 | 38272 ft | 420 kts | 288° |
| 2026-04-26 08:02 | 53.96721 | -3.84456 | 38269 ft | 422 kts | 295° |
| 2026-04-26 08:02 | 53.99631 | -3.93145 | 38186 ft | 423 kts | 297° |
| 2026-04-26 08:03 | 54.01092 | -3.97480 | 37686 ft | 423 kts | 297° |
| 2026-04-26 08:03 | 54.02553 | -4.01830 | 36900 ft | 425 kts | 297° |
| 2026-04-26 08:03 | 54.04026 | -4.06225 | 35944 ft | 430 kts | 297° |
| 2026-04-26 08:03 | 54.05511 | -4.10657 | 35020 ft | 433 kts | 297° |
| 2026-04-26 08:04 | 54.07127 | -4.14995 | 34146 ft | 435 kts | 302° |
| 2026-04-26 08:04 | 54.08881 | -4.19180 | 33233 ft | 434 kts | 302° |
| 2026-04-26 08:04 | 54.10596 | -4.23307 | 32456 ft | 431 kts | 301° |
| 2026-04-26 08:04 | 54.12319 | -4.27468 | 31668 ft | 428 kts | 301° |
| 2026-04-26 08:05 | 54.14019 | -4.31583 | 31075 ft | 422 kts | 301° |
| 2026-04-26 08:05 | 54.15701 | -4.35660 | 30501 ft | 416 kts | 301° |
| 2026-04-26 08:05 | 54.17358 | -4.39685 | 29536 ft | 416 kts | 301° |
| 2026-04-26 08:05 | 54.19033 | -4.43766 | 28083 ft | 425 kts | 301° |
| 2026-04-26 08:06 | 54.20747 | -4.47950 | 26833 ft | 432 kts | 302° |
| 2026-04-26 08:06 | 54.22467 | -4.52140 | 25992 ft | 429 kts | 302° |
| 2026-04-26 08:06 | 54.24171 | -4.56293 | 25181 ft | 424 kts | 302° |
| 2026-04-26 08:06 | 54.25853 | -4.60406 | 24401 ft | 421 kts | 302° |
| 2026-04-26 08:07 | 54.27498 | -4.64448 | 23593 ft | 418 kts | 302° |
| 2026-04-26 08:07 | 54.29149 | -4.68508 | 22738 ft | 414 kts | 302° |
| 2026-04-26 08:07 | 54.30781 | -4.72526 | 21924 ft | 409 kts | 302° |
| 2026-04-26 08:07 | 54.32398 | -4.76514 | 21123 ft | 405 kts | 302° |
| 2026-04-26 08:08 | 54.33993 | -4.80455 | 20338 ft | 402 kts | 302° |
| 2026-04-26 08:08 | 54.35585 | -4.84391 | 19525 ft | 400 kts | 302° |
| 2026-04-26 08:08 | 54.37161 | -4.88295 | 18788 ft | 396 kts | 302° |
| 2026-04-26 08:08 | 54.38720 | -4.92165 | 17981 ft | 393 kts | 302° |
| 2026-04-26 08:09 | 54.40264 | -4.96001 | 17205 ft | 389 kts | 302° |
| 2026-04-26 08:09 | 54.41788 | -4.99795 | 16441 ft | 384 kts | 302° |
| 2026-04-26 08:09 | 54.43279 | -5.03514 | 15699 ft | 381 kts | 302° |
| 2026-04-26 08:09 | 54.44774 | -5.07241 | 14971 ft | 377 kts | 302° |
| 2026-04-26 08:10 | 54.46266 | -5.10930 | 14258 ft | 374 kts | 302° |
| 2026-04-26 08:10 | 54.47748 | -5.14583 | 13508 ft | 371 kts | 302° |
| 2026-04-26 08:10 | 54.49200 | -5.18225 | 12758 ft | 367 kts | 298° |
| 2026-04-26 08:10 | 54.50193 | -5.22200 | 12023 ft | 359 kts | 282° |
| 2026-04-26 08:11 | 54.50497 | -5.26396 | 11320 ft | 351 kts | 266° |
| 2026-04-26 08:11 | 54.50304 | -5.30545 | 10681 ft | 346 kts | 262° |
| 2026-04-26 08:11 | 54.50091 | -5.34573 | 10473 ft | 329 kts | 262° |
| 2026-04-26 08:11 | 54.49890 | -5.38400 | 10329 ft | 313 kts | 262° |
| 2026-04-26 08:12 | 54.49698 | -5.42027 | 10196 ft | 297 kts | 262° |
| 2026-04-26 08:12 | 54.49519 | -5.45430 | 9860 ft | 282 kts | 262° |
| 2026-04-26 08:12 | 54.49339 | -5.48774 | 9187 ft | 278 kts | 262° |
| 2026-04-26 08:12 | 54.49159 | -5.52087 | 8479 ft | 277 kts | 262° |
| 2026-04-26 08:13 | 54.48980 | -5.55380 | 7801 ft | 275 kts | 262° |
| 2026-04-26 08:13 | 54.48804 | -5.58604 | 7160 ft | 274 kts | 262° |
| 2026-04-26 08:13 | 54.48626 | -5.61869 | 6628 ft | 274 kts | 262° |
| 2026-04-26 08:13 | 54.48448 | -5.65111 | 6189 ft | 272 kts | 262° |
| 2026-04-26 08:14 | 54.48270 | -5.68333 | 5767 ft | 270 kts | 262° |
| 2026-04-26 08:14 | 54.48093 | -5.71542 | 5332 ft | 269 kts | 262° |
| 2026-04-26 08:14 | 54.47914 | -5.74770 | 4904 ft | 267 kts | 263° |
| 2026-04-26 08:14 | 54.47741 | -5.77886 | 4499 ft | 265 kts | 263° |
| 2026-04-26 08:15 | 54.47565 | -5.81035 | 4125 ft | 262 kts | 262° |
| 2026-04-26 08:15 | 54.47396 | -5.84071 | 3997 ft | 249 kts | 262° |
| 2026-04-26 08:15 | 54.47234 | -5.86963 | 3892 ft | 237 kts | 262° |
| 2026-04-26 08:15 | 54.47080 | -5.89703 | 3794 ft | 224 kts | 262° |
| 2026-04-26 08:16 | 54.46934 | -5.92295 | 3671 ft | 212 kts | 262° |
| 2026-04-26 08:16 | 54.46795 | -5.94745 | 3597 ft | 201 kts | 262° |
| 2026-04-26 08:16 | 54.46660 | -5.97096 | 3463 ft | 196 kts | 262° |
| 2026-04-26 08:16 | 54.46601 | -5.99442 | 3183 ft | 200 kts | 277° |
| 2026-04-26 08:17 | 54.47296 | -6.01434 | 3007 ft | 198 kts | 325° |
| 2026-04-26 08:17 | 54.48568 | -6.02007 | 2931 ft | 187 kts | 4° |
| 2026-04-26 08:17 | 54.49786 | -6.01450 | 2756 ft | 178 kts | 26° |
| 2026-04-26 08:17 | 54.50858 | -6.00397 | 2540 ft | 180 kts | 35° |
| 2026-04-26 08:18 | 54.51858 | -5.99194 | 2307 ft | 176 kts | 38° |
| 2026-04-26 08:18 | 54.52862 | -5.97987 | 2071 ft | 174 kts | 38° |
| 2026-04-26 08:18 | 54.53822 | -5.96833 | 1842 ft | 166 kts | 38° |
| 2026-04-26 08:18 | 54.54786 | -5.95674 | 1609 ft | 168 kts | 38° |
| 2026-04-26 08:19 | 54.55734 | -5.94538 | 1397 ft | 161 kts | 38° |
| 2026-04-26 08:19 | 54.56608 | -5.93494 | 1169 ft | 141 kts | 39° |
| 2026-04-26 08:19 | 54.57355 | -5.92597 | 975 ft | 125 kts | 38° |
| 2026-04-26 08:19 | 54.58072 | -5.91731 | 803 ft | 125 kts | 38° |
| 2026-04-26 08:20 | 54.58765 | -5.90902 | 640 ft | 122 kts | 39° |
| 2026-04-26 08:20 | 54.59461 | -5.90067 | 473 ft | 124 kts | 37° |
| 2026-04-26 08:20 | 54.60161 | -5.89225 | 313 ft | 121 kts | 38° |
| 2026-04-26 08:20 | 54.60868 | -5.88377 | 143 ft | 121 kts | 38° |
| 2026-04-26 08:21 | 54.61552 | -5.87555 | 25 ft | 115 kts | 36° |
| 2026-04-26 08:21 | 54.61999 | -5.87024 | 22 ft | 37 kts | 34° |
| 2026-04-26 08:21 | 54.62199 | -5.86787 | 28 ft | 35 kts | 34° |
| 2026-04-26 08:21 | 54.62380 | -5.86576 | 26 ft | 22 kts | 33° |
| 2026-04-26 08:22 | 54.62458 | -5.86543 | 26 ft | 13 kts | 14° |
| 2026-04-26 08:22 | 54.62470 | -5.86471 | 24 ft | 6 kts | 145° |
| 2026-04-26 08:22 | 54.62416 | -5.86527 | 25 ft | 15 kts | 215° |
| 2026-04-26 08:22 | 54.62298 | -5.86669 | 25 ft | 25 kts | 214° |
| 2026-04-26 08:23 | 54.62141 | -5.86854 | 23 ft | 30 kts | 215° |
| 2026-04-26 08:23 | 54.61965 | -5.87066 | 25 ft | 32 kts | 214° |
| 2026-04-26 08:23 | 54.61843 | -5.87168 | 25 ft | 13 kts | 163° |
| 2026-04-26 08:23 | 54.61774 | -5.87030 | 23 ft | 17 kts | 125° |
| 2026-04-26 08:24 | 54.61698 | -5.87021 | 26 ft | 14 kts | 215° |
| 2026-04-26 08:24 | 54.61607 | -5.87134 | 24 ft | 17 kts | 214° |
| 2026-04-26 08:24 | 54.61536 | -5.87218 | 24 ft | 8 kts | 214° |
| 2026-04-26 08:24 | 54.61487 | -5.87209 | 24 ft | 6 kts | 151° |
| 2026-04-26 08:25 | 54.61472 | -5.87196 | 25 ft | 0 kts | 156° |
| 2026-04-26 08:25 | 54.61465 | -5.87191 | 24 ft | 2 kts | 154° |
| 2026-04-26 08:25 | 54.61461 | -5.87188 | 26 ft | 0 kts | 155° |
| 2026-04-26 08:25 | 54.61460 | -5.87187 | 26 ft | 0 kts | 155° |
| 2026-04-26 08:33 | 54.61461 | -5.87187 | 26 ft | 0 kts | 155° |